createdAt,value
2018-02-24T00:01:26.673Z,65.01
2018-02-24T00:03:55.700Z,64.99
2018-02-24T00:06:23.950Z,65.27
2018-02-24T00:08:52.972Z,65.46
2018-02-24T00:11:21.227Z,65.42
2018-02-24T00:13:49.483Z,65.51
2018-02-24T00:16:18.512Z,65.64
2018-02-24T00:18:46.761Z,65.60
2018-02-24T00:21:15.786Z,65.77
2018-02-24T00:23:44.063Z,66.28
2018-02-24T00:26:12.317Z,66.03
2018-02-24T00:28:40.571Z,66.21
2018-02-24T00:31:09.603Z,66.25
2018-02-24T00:33:37.856Z,66.17
2018-02-24T00:36:06.113Z,66.00
2018-02-24T00:38:35.132Z,65.98
2018-02-24T00:41:03.381Z,65.88
2018-02-24T00:43:32.407Z,65.74
2018-02-24T00:46:00.661Z,65.99
2018-02-24T00:48:29.680Z,66.12
2018-02-24T00:50:57.937Z,66.20
2018-02-24T00:53:26.194Z,66.62
2018-02-24T00:55:55.230Z,66.41
2018-02-24T00:58:23.482Z,66.48
2018-02-24T01:00:51.745Z,66.79
2018-02-24T01:03:20.754Z,66.91
2018-02-24T01:05:49.010Z,66.68
2018-02-24T01:08:18.025Z,66.87
2018-02-24T01:10:46.292Z,67.02
2018-02-24T01:13:15.305Z,67.29
2018-02-24T01:15:43.549Z,67.33
2018-02-24T01:18:12.574Z,67.33
2018-02-24T01:20:40.827Z,66.96
2018-02-24T01:23:09.851Z,66.93
2018-02-24T01:25:38.101Z,67.17
2018-02-24T01:28:06.362Z,66.94
2018-02-24T01:30:35.378Z,67.13
2018-02-24T01:33:03.638Z,67.21
2018-02-24T01:35:32.655Z,67.40
2018-02-24T01:38:00.910Z,67.63
2018-02-24T01:40:29.936Z,67.57
2018-02-24T01:42:58.194Z,67.47
2018-02-24T01:45:26.455Z,67.60
2018-02-24T01:47:55.491Z,67.45
2018-02-24T01:50:23.738Z,67.70
2018-02-24T01:52:51.986Z,67.59
2018-02-24T01:55:21.002Z,67.60
2018-02-24T01:57:49.249Z,67.71
2018-02-24T02:00:18.271Z,67.82
2018-02-24T02:02:46.519Z,67.90
2018-02-24T02:05:15.554Z,67.98
2018-02-24T02:07:43.802Z,67.75
2018-02-24T02:10:12.836Z,67.95
2018-02-24T02:12:41.092Z,68.35
2018-02-24T02:15:09.354Z,68.17
2018-02-24T02:17:37.607Z,68.11
2018-02-24T02:20:06.638Z,67.80
2018-02-24T02:22:34.883Z,68.01
2018-02-24T02:25:03.916Z,68.32
2018-02-24T02:27:32.166Z,68.11
2018-02-24T02:30:00.434Z,68.37
2018-02-24T02:32:29.454Z,68.46
2018-02-24T02:34:57.699Z,68.91
2018-02-24T02:37:26.724Z,68.98
2018-02-24T02:39:54.982Z,69.03
2018-02-24T02:42:23.252Z,68.95
2018-02-24T02:44:52.267Z,68.85
2018-02-24T02:47:20.528Z,68.87
2018-02-24T02:49:48.779Z,69.04
2018-02-24T02:52:17.803Z,69.28
2018-02-24T02:54:46.049Z,69.51
2018-02-24T02:57:15.083Z,69.42
2018-02-24T02:59:43.331Z,69.52
2018-02-24T03:02:12.359Z,69.50
2018-02-24T03:04:40.601Z,69.78
2018-02-24T03:07:08.875Z,69.47
2018-02-24T03:09:37.894Z,69.48
2018-02-24T03:12:06.146Z,69.56
2018-02-24T03:14:35.166Z,69.68
2018-02-24T03:17:03.420Z,69.97
2018-02-24T03:19:31.683Z,70.23
2018-02-24T03:22:00.693Z,70.45
2018-02-24T03:24:28.962Z,70.23
2018-02-24T03:26:57.215Z,70.28
2018-02-24T03:29:26.238Z,70.42
2018-02-24T03:31:54.485Z,70.57
2018-02-24T03:34:23.513Z,70.49
2018-02-24T03:36:51.758Z,70.40
2018-02-24T03:39:20.778Z,70.76
2018-02-24T03:41:49.043Z,71.13
2018-02-24T03:44:18.059Z,71.29
2018-02-24T03:46:46.311Z,71.37
2018-02-24T03:49:15.338Z,71.40
2018-02-24T03:51:43.587Z,71.15
2018-02-24T03:54:11.863Z,71.17
2018-02-24T03:56:40.115Z,71.40
2018-02-24T03:59:09.130Z,71.49
2018-02-24T04:01:37.386Z,71.68
2018-02-24T04:04:06.412Z,71.63
2018-02-24T04:06:34.661Z,71.67
2018-02-24T04:09:03.691Z,71.62
2018-02-24T04:11:31.947Z,71.66
2018-02-24T04:14:00.193Z,72.05
2018-02-24T04:16:29.258Z,71.85
2018-02-24T04:18:57.466Z,71.83
2018-02-24T04:21:26.488Z,72.15
2018-02-24T04:23:54.734Z,72.37
2018-02-24T04:26:23.770Z,72.03
2018-02-24T04:28:52.018Z,72.11
2018-02-24T04:31:21.050Z,71.85
2018-02-24T04:33:49.294Z,71.92
2018-02-24T04:36:17.549Z,71.72
2018-02-24T04:38:46.565Z,71.50
2018-02-24T04:41:14.833Z,71.51
2018-02-24T04:43:43.091Z,71.58
2018-02-24T04:46:12.102Z,71.16
2018-02-24T04:48:40.359Z,71.05
2018-02-24T04:51:09.375Z,71.40
2018-02-24T04:53:37.634Z,71.39
2018-02-24T04:56:06.648Z,71.45
2018-02-24T04:58:34.910Z,71.89
2018-02-24T05:01:03.931Z,71.85
2018-02-24T05:03:32.186Z,71.96
2018-02-24T05:06:00.432Z,71.86
2018-02-24T05:08:28.698Z,71.74
2018-02-24T05:10:56.944Z,71.93
2018-02-24T05:13:25.205Z,72.23
2018-02-24T05:15:53.454Z,71.67
2018-02-24T05:18:22.478Z,71.82
2018-02-24T05:20:50.730Z,71.96
2018-02-24T05:23:18.996Z,71.79
2018-02-24T05:25:48.007Z,71.68
2018-02-24T05:28:16.278Z,71.77
2018-02-24T05:30:44.526Z,71.88
2018-02-24T05:33:13.543Z,71.79
2018-02-24T05:35:41.806Z,72.19
2018-02-24T05:38:10.823Z,72.05
2018-02-24T05:40:39.082Z,72.11
2018-02-24T05:43:08.103Z,72.18
2018-02-24T05:45:36.358Z,72.53
2018-02-24T05:48:04.609Z,72.48
2018-02-24T05:50:32.860Z,72.51
2018-02-24T05:53:01.115Z,72.35
2018-02-24T05:55:29.386Z,71.93
2018-02-24T05:57:57.633Z,72.05
2018-02-24T06:00:25.900Z,72.24
2018-02-24T06:02:54.929Z,72.19
2018-02-24T06:05:23.186Z,72.44
2018-02-24T06:07:51.427Z,72.23
2018-02-24T06:10:19.686Z,72.09
2018-02-24T06:12:47.931Z,72.12
2018-02-24T06:15:16.208Z,72.12
2018-02-24T06:17:44.454Z,72.15
2018-02-24T06:20:12.714Z,72.47
2018-02-24T06:22:41.740Z,72.11
2018-02-24T06:25:09.987Z,72.15
2018-02-24T06:27:39.022Z,72.20
2018-02-24T06:30:07.279Z,72.09
2018-02-24T06:32:35.542Z,72.07
2018-02-24T06:35:03.791Z,71.84
2018-02-24T06:37:32.054Z,71.61
2018-02-24T06:40:00.305Z,71.40
2018-02-24T06:42:28.564Z,71.40
2018-02-24T06:44:56.815Z,71.12
2018-02-24T06:47:25.846Z,71.17
2018-02-24T06:49:54.100Z,70.75
2018-02-24T06:52:22.361Z,70.56
2018-02-24T06:54:51.376Z,70.51
2018-02-24T06:57:19.637Z,70.45
2018-02-24T06:59:47.896Z,70.16
2018-02-24T07:02:16.938Z,69.99
2018-02-24T07:04:45.189Z,69.94
2018-02-24T07:07:13.448Z,69.46
2018-02-24T07:09:42.458Z,69.33
2018-02-24T07:12:10.712Z,69.28
2018-02-24T07:14:39.732Z,68.86
2018-02-24T07:17:07.996Z,68.64
2018-02-24T07:19:36.262Z,68.36
2018-02-24T07:22:05.288Z,68.24
2018-02-24T07:24:33.541Z,67.90
2018-02-24T07:27:01.814Z,67.36
2018-02-24T07:29:30.077Z,67.11
2018-02-24T07:31:59.098Z,66.85
2018-02-24T07:34:27.354Z,66.77
2018-02-24T07:36:56.381Z,66.66
2018-02-24T07:39:24.625Z,65.97
2018-02-24T07:41:52.886Z,65.59
2018-02-24T07:44:21.904Z,64.99
2018-02-24T07:46:50.167Z,64.73
2018-02-24T07:49:19.180Z,64.31
2018-02-24T07:51:47.442Z,63.88
2018-02-24T07:54:15.687Z,63.29
2018-02-24T07:56:43.942Z,62.96
2018-02-24T07:59:12.199Z,62.14
2018-02-24T08:01:40.460Z,61.55
2018-02-24T08:04:08.711Z,61.53
2018-02-24T08:06:37.725Z,60.66
2018-02-24T08:09:05.978Z,60.11
2018-02-24T08:11:35.008Z,59.71
2018-02-24T08:14:03.254Z,59.10
2018-02-24T08:16:31.510Z,59.16
2018-02-24T08:19:00.534Z,58.95
2018-02-24T08:21:28.781Z,58.52
2018-02-24T08:23:57.806Z,57.16
2018-02-24T08:26:26.058Z,57.60
2018-02-24T08:28:55.089Z,56.92
2018-02-24T08:31:23.341Z,56.59
2018-02-24T08:33:51.607Z,56.33
2018-02-24T08:36:20.665Z,55.84
2018-02-24T08:38:48.943Z,55.47
2018-02-24T08:41:17.191Z,54.32
2018-02-24T08:43:45.452Z,54.21
2018-02-24T08:46:13.707Z,54.25
2018-02-24T08:48:41.961Z,53.80
2018-02-24T08:51:10.228Z,53.75
2018-02-24T08:53:38.470Z,52.76
2018-02-24T08:56:06.735Z,52.24
2018-02-24T08:58:34.981Z,52.19
2018-02-24T09:01:03.243Z,51.79
2018-02-24T09:03:32.257Z,51.79
2018-02-24T09:06:00.527Z,51.18
2018-02-24T09:08:29.539Z,50.48
2018-02-24T09:10:57.795Z,50.47
2018-02-24T09:13:26.803Z,49.78
2018-02-24T09:15:55.058Z,48.89
2018-02-24T09:18:24.075Z,49.09
2018-02-24T09:20:52.348Z,49.14
2018-02-24T09:23:20.590Z,48.80
2018-02-24T09:25:49.636Z,48.36
2018-02-24T09:28:17.888Z,48.14
2018-02-24T09:30:46.159Z,47.86
2018-02-24T09:33:15.160Z,47.45
2018-02-24T09:35:43.411Z,47.12
2018-02-24T09:38:12.439Z,46.91
2018-02-24T09:40:40.701Z,47.48
2018-02-24T09:43:08.953Z,46.99
2018-02-24T09:45:37.984Z,46.50
2018-02-24T09:48:06.238Z,45.86
2018-02-24T09:50:34.491Z,45.63
2018-02-24T09:53:03.519Z,45.80
2018-02-24T09:55:31.772Z,45.49
2018-02-24T09:58:00.798Z,45.01
2018-02-24T10:00:29.050Z,44.93
2018-02-24T10:02:57.321Z,44.71
2018-02-24T10:05:25.573Z,44.74
2018-02-24T10:07:53.842Z,44.02
2018-02-24T10:10:22.097Z,43.81
2018-02-24T10:12:50.349Z,44.22
2018-02-24T10:15:18.623Z,44.71
2018-02-24T10:17:46.858Z,44.17
2018-02-24T10:20:15.892Z,43.95
2018-02-24T10:22:44.142Z,44.07
2018-02-24T10:25:12.417Z,43.51
2018-02-24T10:27:40.668Z,43.27
2018-02-24T10:30:08.926Z,43.31
2018-02-24T10:32:37.185Z,42.71
2018-02-24T10:35:06.209Z,42.07
2018-02-24T10:37:34.473Z,41.70
2018-02-24T10:40:02.727Z,41.74
2018-02-24T10:42:30.990Z,42.38
2018-02-24T10:44:59.270Z,42.34
2018-02-24T10:47:27.525Z,42.74
2018-02-24T10:49:55.794Z,42.59
2018-02-24T10:52:24.049Z,43.52
2018-02-24T10:54:53.074Z,43.23
2018-02-24T10:57:21.338Z,42.80
2018-02-24T10:59:49.586Z,42.17
2018-02-24T11:02:18.609Z,42.43
2018-02-24T11:04:46.861Z,42.31
2018-02-24T11:07:15.892Z,41.66
2018-02-24T11:09:44.141Z,39.99
2018-02-24T11:12:12.408Z,37.51
2018-02-24T11:14:41.443Z,37.12
2018-02-24T11:17:09.697Z,37.26
2018-02-24T11:19:37.951Z,37.27
2018-02-24T11:22:06.975Z,37.59
2018-02-24T11:24:35.218Z,37.04
2018-02-24T11:27:04.246Z,36.93
2018-02-24T11:29:32.484Z,36.78
2018-02-24T11:32:00.739Z,37.67
2018-02-24T11:34:29.060Z,36.60
2018-02-24T11:36:57.244Z,36.89
2018-02-24T11:39:30.914Z,35.62
2018-02-24T11:41:59.939Z,35.97
2018-02-24T11:44:28.182Z,35.65
2018-02-24T11:46:56.427Z,35.55
2018-02-24T11:49:24.666Z,35.63
2018-02-24T11:51:52.988Z,36.26
2018-02-24T11:54:21.234Z,36.34
2018-02-24T11:56:49.484Z,35.49
2018-02-24T11:59:17.727Z,34.90
2018-02-24T12:01:45.979Z,36.61
2018-02-24T12:04:14.222Z,35.94
2018-02-24T12:06:42.467Z,35.62
2018-02-24T12:09:11.468Z,35.25
2018-02-24T12:11:40.486Z,35.29
2018-02-24T12:14:08.726Z,36.10
2018-02-24T12:16:37.734Z,36.45
2018-02-24T12:19:05.986Z,36.25
2018-02-24T12:21:34.238Z,36.26
2018-02-24T12:24:02.483Z,34.93
2018-02-24T12:26:30.733Z,35.46
2018-02-24T12:28:59.747Z,37.30
2018-02-24T12:31:28.003Z,35.50
2018-02-24T12:33:57.009Z,37.05
2018-02-24T12:36:25.258Z,38.16
2018-02-24T12:38:54.261Z,39.32
2018-02-24T12:41:22.515Z,39.01
2018-02-24T12:43:50.768Z,39.44
2018-02-24T12:46:19.022Z,37.81
2018-02-24T12:48:47.262Z,37.37
2018-02-24T12:51:16.275Z,37.61
2018-02-24T12:53:44.521Z,37.68
2018-02-24T12:56:13.538Z,38.50
2018-02-24T12:58:41.769Z,37.74
2018-02-24T13:01:10.942Z,36.98
2018-02-24T13:03:39.951Z,36.54
2018-02-24T13:06:08.203Z,36.45
2018-02-24T13:08:36.441Z,39.76
2018-02-24T13:11:04.695Z,39.05
2018-02-24T13:13:32.947Z,40.07
2018-02-24T13:16:01.183Z,39.59
2018-02-24T13:18:29.439Z,36.93
2018-02-24T13:20:58.451Z,37.40
2018-02-24T13:23:26.691Z,38.10
2018-02-24T13:25:54.926Z,37.97
2018-02-24T13:28:23.169Z,37.88
2018-02-24T13:30:51.416Z,39.17
2018-02-24T13:33:19.668Z,40.59
2018-02-24T13:35:47.909Z,40.53
2018-02-24T13:38:16.155Z,41.97
2018-02-24T13:40:45.159Z,39.98
2018-02-24T13:43:13.407Z,41.10
2018-02-24T13:45:41.647Z,39.86
2018-02-24T13:48:09.927Z,40.28
2018-02-24T13:50:38.139Z,39.74
2018-02-24T13:53:07.153Z,39.35
2018-02-24T13:55:35.399Z,39.29
2018-02-24T13:58:03.640Z,39.50
2018-02-24T14:00:31.882Z,39.45
2018-02-24T14:03:00.170Z,39.53
2018-02-24T14:08:03.777Z,41.72
2018-02-24T14:10:32.019Z,41.53
2018-02-24T14:13:01.042Z,39.38
2018-02-24T14:15:29.286Z,38.53
2018-02-24T14:17:57.543Z,36.37
2018-02-24T14:20:25.786Z,37.72
2018-02-24T14:22:54.041Z,36.33
2018-02-24T14:25:22.287Z,35.68
2018-02-24T14:27:50.538Z,36.01
2018-02-24T14:30:18.779Z,37.37
2018-02-24T14:32:47.030Z,36.64
2018-02-24T14:35:16.036Z,36.47
2018-02-24T14:37:44.286Z,34.63
2018-02-24T14:40:13.289Z,35.87
2018-02-24T14:42:42.311Z,36.50
2018-02-24T14:45:10.583Z,38.44
2018-02-24T14:47:39.579Z,35.81
2018-02-24T14:50:07.823Z,37.16
2018-02-24T14:52:36.845Z,38.26
2018-02-24T14:55:05.098Z,37.71
2018-02-24T14:57:34.109Z,38.02
2018-02-24T15:00:02.358Z,37.39
2018-02-24T15:02:31.371Z,36.84
2018-02-24T15:04:59.678Z,37.32
2018-02-24T15:07:28.637Z,36.77
2018-02-24T15:09:56.891Z,37.65
2018-02-24T15:12:25.933Z,37.63
2018-02-24T15:14:54.178Z,36.74
2018-02-24T15:17:22.433Z,37.17
2018-02-24T15:19:51.448Z,35.97
2018-02-24T15:22:20.467Z,37.15
2018-02-24T15:24:48.709Z,37.90
2018-02-24T15:27:16.962Z,37.04
2018-02-24T15:29:45.213Z,37.48
2018-02-24T15:32:13.507Z,36.70
2018-02-24T15:34:41.761Z,35.94
2018-02-24T15:37:10.010Z,36.10
2018-02-24T15:39:38.263Z,36.62
2018-02-24T15:42:07.280Z,35.61
2018-02-24T15:44:35.528Z,36.26
2018-02-24T15:47:04.538Z,37.14
2018-02-24T15:49:32.793Z,36.57
2018-02-24T15:52:01.801Z,39.00
2018-02-24T15:54:30.876Z,40.18
2018-02-24T15:56:59.883Z,41.16
2018-02-24T15:59:28.902Z,41.72
2018-02-24T16:01:57.154Z,42.06
2018-02-24T16:04:25.411Z,41.99
2018-02-24T16:06:54.421Z,42.13
2018-02-24T16:09:22.687Z,41.86
2018-02-24T16:11:51.710Z,41.68
2018-02-24T16:14:19.968Z,41.40
2018-02-24T16:16:48.976Z,41.75
2018-02-24T16:19:17.240Z,41.98
2018-02-24T16:21:45.499Z,41.59
2018-02-24T16:24:14.524Z,41.59
2018-02-24T16:26:42.769Z,41.27
2018-02-24T16:29:11.799Z,41.20
2018-02-24T16:31:40.055Z,41.09
2018-02-24T16:34:08.318Z,41.51
2018-02-24T16:36:37.321Z,41.39
2018-02-24T16:39:05.584Z,41.76
2018-02-24T16:41:34.602Z,42.31
2018-02-24T16:44:02.880Z,42.63
2018-02-24T16:46:31.138Z,42.50
2018-02-24T16:48:59.391Z,42.61
2018-02-24T16:51:27.651Z,42.70
2018-02-24T16:53:55.905Z,42.70
2018-02-24T16:56:24.181Z,42.61
2018-02-24T16:58:52.426Z,43.24
2018-02-24T17:01:20.690Z,43.45
2018-02-24T17:03:49.698Z,43.50
2018-02-24T17:06:17.954Z,43.71
2018-02-24T17:08:46.964Z,44.07
2018-02-24T17:11:15.221Z,43.97
2018-02-24T17:13:44.240Z,44.54
2018-02-24T17:16:12.498Z,44.82
2018-02-24T17:18:40.760Z,44.78
2018-02-24T17:21:09.848Z,44.96
2018-02-24T17:23:38.047Z,45.23
2018-02-24T17:26:06.286Z,45.86
2018-02-24T17:28:34.539Z,45.83
2018-02-24T17:31:02.789Z,46.08
2018-02-24T17:33:31.034Z,46.61
2018-02-24T17:36:00.044Z,46.50
2018-02-24T17:38:28.297Z,46.51
2018-02-24T17:40:57.307Z,46.53
2018-02-24T17:43:25.567Z,46.61
2018-02-24T17:45:54.588Z,47.07
2018-02-24T17:48:22.844Z,47.14
2018-02-24T17:50:51.850Z,46.61
2018-02-24T17:53:20.118Z,46.16
2018-02-24T17:55:48.358Z,46.42
2018-02-24T17:58:16.598Z,46.49
2018-02-24T18:00:44.858Z,46.11
2018-02-24T18:03:13.147Z,45.93
2018-02-24T18:05:42.136Z,45.73
2018-02-24T18:08:10.381Z,45.58
2018-02-24T18:10:39.399Z,45.74
2018-02-24T18:13:07.643Z,45.78
2018-02-24T18:15:42.591Z,45.48
2018-02-24T18:18:10.834Z,45.23
2018-02-24T18:20:39.089Z,45.23
2018-02-24T18:23:07.338Z,45.10
2018-02-24T18:25:35.581Z,45.49
2018-02-24T18:28:04.603Z,45.28
2018-02-24T18:30:32.870Z,45.58
2018-02-24T18:33:01.132Z,45.25
2018-02-24T18:35:30.130Z,45.36
2018-02-24T18:37:58.398Z,45.42
2018-02-24T18:40:27.405Z,45.58
2018-02-24T18:42:55.665Z,45.46
2018-02-24T18:45:24.682Z,45.55
2018-02-24T18:47:52.933Z,45.63
2018-02-24T18:50:21.948Z,45.43
2018-02-24T18:52:50.243Z,45.89
2018-02-24T18:55:19.219Z,46.13
2018-02-24T18:57:47.475Z,46.07
2018-02-24T19:00:15.722Z,46.56
2018-02-24T19:02:43.974Z,46.55
2018-02-24T19:05:12.219Z,46.79
2018-02-24T19:07:40.469Z,47.12
2018-02-24T19:10:09.470Z,47.49
2018-02-24T19:12:37.728Z,48.15
2018-02-24T19:15:06.747Z,48.60
2018-02-24T19:17:35.001Z,48.93
2018-02-24T19:20:04.014Z,49.57
2018-02-24T19:22:32.262Z,50.16
2018-02-24T19:25:01.315Z,50.28
2018-02-24T19:27:29.534Z,50.54
2018-02-24T19:29:58.549Z,50.87
2018-02-24T19:32:26.799Z,50.98
2018-02-24T19:34:55.819Z,50.88
2018-02-24T19:37:24.063Z,51.18
2018-02-24T19:39:52.318Z,51.00
2018-02-24T19:42:20.562Z,50.96
2018-02-24T19:44:48.815Z,51.10
2018-02-24T19:47:17.069Z,51.15
2018-02-24T19:49:45.315Z,50.91
2018-02-24T19:52:13.566Z,50.78
2018-02-24T19:54:41.813Z,50.91
2018-02-24T19:57:10.063Z,50.82
2018-02-24T19:59:38.328Z,50.89
2018-02-24T20:02:06.573Z,50.76
2018-02-24T20:04:34.810Z,50.91
2018-02-24T20:07:03.838Z,50.88
2018-02-24T20:09:32.093Z,51.17
2018-02-24T20:12:00.349Z,51.13
2018-02-24T20:14:29.359Z,51.08
2018-02-24T20:16:57.601Z,51.02
2018-02-24T20:19:25.853Z,50.62
2018-02-24T20:21:54.093Z,50.73
2018-02-24T20:24:22.346Z,50.72
2018-02-24T20:26:51.369Z,50.57
2018-02-24T20:29:19.614Z,50.94
2018-02-24T20:31:48.637Z,51.25
2018-02-24T20:34:16.882Z,51.15
2018-02-24T20:36:45.899Z,50.95
2018-02-24T20:39:14.141Z,51.31
2018-02-24T20:41:43.163Z,51.53
2018-02-24T20:44:11.406Z,51.35
2018-02-24T20:46:40.429Z,51.61
2018-02-24T20:49:08.666Z,51.63
2018-02-24T20:51:36.906Z,51.66
2018-02-24T20:54:05.151Z,52.20
2018-02-24T20:56:33.398Z,51.88
2018-02-24T20:59:02.627Z,52.30
2018-02-24T21:01:30.866Z,52.44
2018-02-24T21:03:59.118Z,52.38
2018-02-24T21:06:27.370Z,52.29
2018-02-24T21:08:55.621Z,52.60
2018-02-24T21:11:23.865Z,52.62
2018-02-24T21:13:52.122Z,52.92
2018-02-24T21:16:20.366Z,52.92
2018-02-24T21:18:48.618Z,52.92
2018-02-24T21:21:17.625Z,52.88
2018-02-24T21:23:45.877Z,52.90
2018-02-24T21:26:14.900Z,53.06
2018-02-24T21:28:43.150Z,53.09
2018-02-24T21:31:12.168Z,53.48
2018-02-24T21:33:40.431Z,53.73
2018-02-24T21:36:08.677Z,53.42
2018-02-24T21:38:36.925Z,53.83
2018-02-24T21:41:05.178Z,53.74
2018-02-24T21:43:33.422Z,53.64
2018-02-24T21:46:02.439Z,53.90
2018-02-24T21:48:30.682Z,54.03
2018-02-24T21:50:59.714Z,54.50
2018-02-24T21:53:27.961Z,54.48
2018-02-24T21:55:56.985Z,54.49
2018-02-24T21:58:25.222Z,54.72
2018-02-24T22:00:54.244Z,54.66
2018-02-24T22:03:22.485Z,54.64
2018-02-24T22:05:50.730Z,55.23
2018-02-24T22:08:18.977Z,55.07
2018-02-24T22:10:47.234Z,55.24
2018-02-24T22:13:15.482Z,55.42
2018-02-24T22:15:43.733Z,55.13
2018-02-24T22:18:11.977Z,55.25
2018-02-24T22:20:40.235Z,55.55
2018-02-24T22:23:08.486Z,55.75
2018-02-24T22:25:37.493Z,55.77
2018-02-24T22:28:06.517Z,55.55
2018-02-24T22:30:34.788Z,55.76
2018-02-24T22:33:03.033Z,56.04
2018-02-24T22:35:32.046Z,56.17
2018-02-24T22:38:00.297Z,56.19
2018-02-24T22:40:29.307Z,56.20
2018-02-24T22:42:57.555Z,56.79
2018-02-24T22:45:25.805Z,56.58
2018-02-24T22:47:59.707Z,56.46
2018-02-24T22:50:27.954Z,56.30
2018-02-24T22:52:56.209Z,56.43
2018-02-24T22:55:25.222Z,56.22
2018-02-24T22:57:53.477Z,56.03
2018-02-24T23:00:21.738Z,56.13
2018-02-24T23:02:49.992Z,56.15
2018-02-24T23:05:18.241Z,56.29
2018-02-24T23:07:46.494Z,56.39
2018-02-24T23:10:14.748Z,56.33
2018-02-24T23:12:43.765Z,56.27
2018-02-24T23:15:12.054Z,56.28
2018-02-24T23:17:41.030Z,56.34
2018-02-24T23:20:09.284Z,56.23
2018-02-24T23:22:38.293Z,56.70
2018-02-24T23:25:06.553Z,56.46
2018-02-24T23:27:35.574Z,56.65
2018-02-24T23:30:03.837Z,56.89
2018-02-24T23:32:32.077Z,56.86
2018-02-24T23:35:00.327Z,57.00
2018-02-24T23:37:28.575Z,56.89
2018-02-24T23:39:56.823Z,56.93
2018-02-24T23:42:25.842Z,57.26
2018-02-24T23:44:54.104Z,57.62
2018-02-24T23:47:22.351Z,57.49
2018-02-24T23:49:50.610Z,57.71
2018-02-24T23:52:18.860Z,57.59
2018-02-24T23:54:47.106Z,57.75
2018-02-24T23:57:15.373Z,57.76
2018-02-24T23:59:44.390Z,57.83
